U30 weather

Temple Bar Airport
Temple Bar, Arizona, United States

Public forecast

Using degrees Fahrenheit for public forecast. Weather courtesy of forecast.io.

METAR (pilot weather report)

Closest report is Nellis Air Force Base, 36.3 nm (67.2 km) WNW. Retrieved 2019/03/24 13:57 UTC (54 minutes ago):

KLSV 241357Z 05004KT 10SM CLR 08/01 A3011 RMK A02A SLP186 WND DATA ESTMD T00830014 $

TAF (pilot weather forecast)

Closest forecast is Nellis Air Force Base, 36.3 nm (67.2 km) WNW. Retrieved 2019/03/24 15:03 UTC (0 seconds ago):

TAF TAF KLSV 241500Z 2415/2521 VRB06KT 9999 SKC QNH3010INS BECMG 2419/2420 15012KT 9999 SKC QNH3009INS BECMG 2505/2506 VRB06KT 9999 SKC QNH3015INS BECMG 2517/2518 14012KT 9999 SKC QNH3008INS TX23/2423Z TN12/2415Z